Time;durP1;ratioP1;P1;durP2;ratioP2;P2;SDS_P1;SDS_P2;PMS_P1;PMS_P2;Temp;Humidity;BMP_temperature;BMP_pressure;BME280_temperature;BME280_humidity;BME280_pressure;Samples;Min_cycle;Max_cycle;Signal;HPM_P1;HPM_P2
2023/08/31 00:00:25;;;;;;;4.72;1.40;;;14.20;99.90;;;;;;4945458;29;20070;-76
2023/08/31 00:02:50;;;;;;;2.17;1.20;;;14.20;99.90;;;;;;4945211;29;20051;-75
2023/08/31 00:05:16;;;;;;;6.82;1.90;;;14.30;99.90;;;;;;4945178;29;20125;-76
2023/08/31 00:07:42;;;;;;;5.45;1.38;;;14.30;99.90;;;;;;4945182;29;20036;-75
2023/08/31 00:10:11;;;;;;;2.67;1.23;;;14.40;99.90;;;;;;4944228;29;20032;-77
2023/08/31 00:12:37;;;;;;;3.08;1.73;;;14.40;99.90;;;;;;4945032;29;20210;-76
2023/08/31 00:15:04;;;;;;;3.47;1.30;;;14.30;99.90;;;;;;4928512;29;20032;-76
2023/08/31 00:17:30;;;;;;;3.05;1.50;;;14.30;99.90;;;;;;4944977;29;20028;-74
2023/08/31 00:19:56;;;;;;;6.22;1.30;;;14.30;99.90;;;;;;4945382;29;20023;-77
2023/08/31 00:22:21;;;;;;;3.20;1.40;;;14.30;99.90;;;;;;4945122;29;20042;-76
2023/08/31 00:24:47;;;;;;;6.13;1.42;;;14.30;99.90;;;;;;4944700;29;20126;-76
2023/08/31 00:27:14;;;;;;;2.90;1.30;;;14.30;99.90;;;;;;4944809;29;20311;-78
2023/08/31 00:29:45;;;;;;;3.53;1.70;;;14.20;99.90;;;;;;4927886;29;20083;-77
2023/08/31 06:06:59;;;;;;;6.38;2.17;;;13.60;99.90;;;;;;4900490;29;20060;-76
2023/08/31 06:09:24;;;;;;;6.05;2.20;;;13.70;99.90;;;;;;4891884;29;20252;-76
2023/08/31 06:11:59;;;;;;;5.20;2.35;;;13.70;99.90;;;;;;4891901;29;20036;-76
2023/08/31 06:14:45;;;;;;;4.63;2.13;;;13.70;99.90;;;;;;4891502;29;20036;-75
2023/08/31 06:17:23;;;;;;;6.90;2.30;;;13.70;99.90;;;;;;4908273;29;20121;-76
2023/08/31 06:19:58;;;;;;;10.65;2.25;;;13.70;99.90;;;;;;4891559;29;20036;-77
2023/08/31 06:22:29;;;;;;;6.50;2.00;;;13.60;99.90;;;;;;4908709;29;20024;-76
2023/08/31 06:24:55;;;;;;;5.75;2.50;;;13.70;99.90;;;;;;4907927;29;20057;-76
2023/08/31 06:27:23;;;;;;;5.82;1.98;;;13.70;99.90;;;;;;4908561;29;20024;-76
2023/08/31 06:29:52;;;;;;;3.88;2.00;;;13.90;99.90;;;;;;4908279;29;20040;-77
2023/08/31 06:32:18;;;;;;;5.30;1.67;;;14.10;99.90;;;;;;4891930;29;20035;-77
2023/08/31 06:34:45;;;;;;;6.00;1.83;;;14.10;99.90;;;;;;4908562;29;20040;-77
2023/08/31 06:37:10;;;;;;;5.65;2.20;;;14.00;99.90;;;;;;4891126;29;20067;-75
2023/08/31 06:39:36;;;;;;;8.13;2.67;;;14.10;99.90;;;;;;4908096;29;20037;-77
2023/08/31 06:42:20;;;;;;;4.85;2.13;;;14.10;99.90;;;;;;4891312;29;20036;-77
2023/08/31 06:44:46;;;;;;;6.97;2.13;;;14.10;99.90;;;;;;4876099;29;20104;-77
2023/08/31 06:47:18;;;;;;;8.77;2.05;;;14.10;99.90;;;;;;4907843;29;20028;-76
2023/08/31 06:49:43;;;;;;;4.53;2.35;;;14.20;99.90;;;;;;4891471;29;20321;-77
2023/08/31 06:52:30;;;;;;;7.72;2.08;;;14.30;99.90;;;;;;4907570;29;20077;-75
2023/08/31 06:55:07;;;;;;;4.80;1.63;;;14.30;99.90;;;;;;4907559;29;20339;-75
2023/08/31 06:57:53;;;;;;;4.82;2.10;;;14.50;99.90;;;;;;4907935;29;20032;-77
2023/08/31 07:00:19;;;;;;;5.22;1.77;;;14.60;99.90;;;;;;4907698;29;20052;-75
2023/08/31 07:02:45;;;;;;;6.65;1.77;;;14.90;99.90;;;;;;4891277;29;20111;-75
2023/08/31 07:05:11;;;;;;;3.72;1.70;;;15.20;99.90;;;;;;4912832;29;20047;-75
2023/08/31 07:07:37;;;;;;;6.18;1.45;;;15.50;99.90;;;;;;4927045;29;20036;-75
2023/08/31 07:10:05;;;;;;;6.25;1.70;;;15.80;99.90;;;;;;4927095;29;20020;-76
2023/08/31 07:12:31;;;;;;;7.10;1.83;;;16.00;99.90;;;;;;4933853;29;20035;-74
2023/08/31 07:14:57;;;;;;;6.05;1.58;;;16.10;99.90;;;;;;4934704;29;20373;-73
2023/08/31 07:17:22;;;;;;;4.40;1.33;;;16.30;99.90;;;;;;4936738;29;20068;-76
2023/08/31 07:19:48;;;;;;;4.47;1.35;;;16.30;99.90;;;;;;4912007;29;20239;-74
2023/08/31 07:22:15;;;;;;;7.28;1.50;;;16.40;99.90;;;;;;4909460;29;20035;-73
2023/08/31 07:24:40;;;;;;;5.38;1.30;;;16.60;99.90;;;;;;4926783;29;20089;-74
2023/08/31 07:27:06;;;;;;;4.50;1.40;;;16.70;99.90;;;;;;4926107;29;20032;-75
2023/08/31 07:29:33;;;;;;;3.60;1.60;;;16.80;99.90;;;;;;4925470;29;20043;-74
2023/08/31 07:32:00;;;;;;;5.25;1.40;;;16.80;99.90;;;;;;4896604;29;20059;-76
2023/08/31 07:34:26;;;;;;;5.40;1.40;;;16.70;99.90;;;;;;4906382;29;20234;-75
2023/08/31 07:37:00;;;;;;;4.18;1.30;;;16.60;99.90;;;;;;4909104;29;20126;-74
2023/08/31 07:39:26;;;;;;;3.80;1.30;;;16.50;99.20;;;;;;4909623;29;20218;-73
2023/08/31 07:41:54;;;;;;;5.18;1.30;;;16.40;98.40;;;;;;4925775;29;20333;-73
2023/08/31 07:44:21;;;;;;;4.18;1.40;;;16.40;99.10;;;;;;4893972;29;20040;-73
2023/08/31 07:46:47;;;;;;;5.72;1.73;;;16.30;99.40;;;;;;4926096;29;20070;-74
2023/08/31 07:49:13;;;;;;;5.18;1.30;;;16.40;99.50;;;;;;4909161;29;20039;-75
2023/08/31 07:51:38;;;;;;;4.15;1.33;;;16.40;98.80;;;;;;4926328;29;20122;-75
2023/08/31 07:54:04;;;;;;;5.90;1.58;;;16.60;98.90;;;;;;4925788;29;20036;-74
2023/08/31 07:56:30;;;;;;;7.90;1.48;;;16.70;97.00;;;;;;4909834;29;20314;-74
2023/08/31 07:59:03;;;;;;;5.05;1.38;;;16.80;95.60;;;;;;4890009;29;20032;-76
2023/08/31 08:01:28;;;;;;;5.93;1.38;;;17.10;95.70;;;;;;4907405;29;20314;-75
2023/08/31 08:03:54;;;;;;;4.00;1.27;;;17.30;95.00;;;;;;4890207;29;20043;-77
2023/08/31 08:06:20;;;;;;;4.25;1.15;;;17.40;95.00;;;;;;4906758;29;20264;-75
2023/08/31 08:08:45;;;;;;;6.25;1.50;;;17.50;94.20;;;;;;4907608;29;20037;-75
2023/08/31 08:11:11;;;;;;;3.95;1.30;;;17.50;94.50;;;;;;4928644;29;20229;-75
2023/08/31 08:13:37;;;;;;;3.85;1.20;;;17.70;93.50;;;;;;4913019;29;20043;-75
2023/08/31 08:16:03;;;;;;;3.67;1.40;;;17.90;92.60;;;;;;4929373;29;20032;-75
2023/08/31 08:18:30;;;;;;;3.92;1.30;;;18.00;88.50;;;;;;4913374;29;20112;-75
2023/08/31 08:20:55;;;;;;;4.88;1.73;;;18.20;90.20;;;;;;4912382;29;20099;-75
2023/08/31 08:23:24;;;;;;;5.38;1.48;;;18.70;90.40;;;;;;4929783;29;20038;-79
2023/08/31 08:25:49;;;;;;;;;;;19.10;84.50;;;;;;4913963;29;20039;-75
2023/08/31 08:28:15;;;;;;;7.57;1.95;;;19.10;81.20;;;;;;4929449;29;19907;-75
2023/08/31 08:30:41;;;;;;;4.78;1.20;;;19.10;83.60;;;;;;4929712;29;20073;-75
2023/08/31 08:33:08;;;;;;;4.88;1.50;;;19.00;81.40;;;;;;4929435;29;20051;-74
2023/08/31 08:35:33;;;;;;;4.45;1.23;;;19.30;82.50;;;;;;4929617;29;20062;-75
2023/08/31 08:38:20;;;;;;;5.55;1.55;;;19.40;81.70;;;;;;4913033;29;20032;-76
2023/08/31 08:40:46;;;;;;;4.65;1.13;;;19.40;84.50;;;;;;4912388;29;20039;-74
2023/08/31 08:43:27;;;;;;;3.10;1.48;;;19.20;83.70;;;;;;4928852;29;20028;-73
2023/08/31 08:46:33;;;;;;;5.15;1.23;;;18.90;82.20;;;;;;4929518;29;20043;-74
2023/08/31 08:49:38;;;;;;;3.65;1.30;;;19.10;82.40;;;;;;4928876;29;20035;-73
2023/08/31 08:53:01;;;;;;;;;;;;;;;;;;;;;
2023/08/31 08:56:26;;;;;;;4.82;1.20;;;19.60;81.90;;;;;;4929156;29;20390;-74
2023/08/31 08:59:00;;;;;;;4.07;1.38;;;19.60;81.40;;;;;;4912299;29;20024;-73
2023/08/31 09:01:39;;;;;;;4.00;1.10;;;19.60;81.50;;;;;;4929254;29;20044;-74
2023/08/31 09:04:12;;;;;;;;;;;19.30;81.20;;;;;;4912165;29;20043;-76
2023/08/31 09:06:39;;;;;;;5.15;1.10;;;19.10;81.70;;;;;;4927841;29;19915;-73
2023/08/31 09:09:17;;;;;;;4.40;1.25;;;19.10;81.10;;;;;;4928528;29;20096;-74
2023/08/31 09:11:48;;;;;;;5.20;1.20;;;19.20;80.50;;;;;;4911952;29;20076;-77
2023/08/31 09:14:23;;;;;;;3.45;1.13;;;19.30;80.90;;;;;;4928451;29;20036;-77
2023/08/31 09:16:50;;;;;;;7.25;1.52;;;19.30;80.40;;;;;;4909998;29;20084;-75
2023/08/31 09:19:22;;;;;;;3.45;1.23;;;19.50;82.60;;;;;;4908867;29;20069;-76
2023/08/31 09:21:52;;;;;;;2.75;1.10;;;19.90;81.00;;;;;;4893417;29;20091;-74
2023/08/31 09:24:27;;;;;;;4.30;1.43;;;20.00;79.50;;;;;;4919549;29;20035;-74
2023/08/31 09:27:04;;;;;;;5.30;1.45;;;19.90;79.80;;;;;;4928613;29;20036;-77
2023/08/31 09:29:48;;;;;;;6.38;1.50;;;19.80;79.80;;;;;;4912258;29;20040;-75
2023/08/31 09:32:20;;;;;;;5.07;1.20;;;19.80;80.80;;;;;;4895759;29;20035;-75
2023/08/31 09:34:47;;;;;;;3.78;1.38;;;19.90;80.60;;;;;;4922400;29;20315;-75
2023/08/31 09:37:27;;;;;;;3.17;1.17;;;20.00;80.30;;;;;;4928067;29;20052;-76
2023/08/31 09:39:53;;;;;;;3.53;1.20;;;19.90;80.40;;;;;;4895863;29;20035;-75
2023/08/31 09:42:37;;;;;;;3.95;1.20;;;19.60;78.60;;;;;;4927575;29;20036;-76
2023/08/31 09:45:33;;;;;;;3.65;1.30;;;19.30;79.50;;;;;;4915284;29;20088;-76
2023/08/31 09:48:05;;;;;;;4.03;1.52;;;19.00;79.60;;;;;;4927713;29;20095;-78
2023/08/31 09:50:33;;;;;;;3.22;1.33;;;19.30;80.10;;;;;;4928293;29;20077;-75
2023/08/31 09:53:10;;;;;;;5.32;1.52;;;19.50;78.30;;;;;;4910471;29;20023;-76
2023/08/31 09:55:39;;;;;;;6.13;1.30;;;19.90;76.70;;;;;;4928434;29;20032;-76
2023/08/31 09:58:06;;;;;;;4.22;1.50;;;20.00;75.40;;;;;;4910541;29;20218;-75
2023/08/31 10:00:34;;;;;;;5.55;1.58;;;20.20;74.10;;;;;;4927992;29;20240;-76
2023/08/31 10:03:03;;;;;;;4.70;1.63;;;20.20;73.20;;;;;;4927383;29;20032;-75
2023/08/31 10:05:29;;;;;;;6.30;1.00;;;20.20;72.50;;;;;;4895759;29;20120;-76
2023/08/31 10:08:04;;;;;;;3.70;1.05;;;20.20;72.00;;;;;;4900908;29;20265;-76
2023/08/31 10:10:30;;;;;;;6.60;1.75;;;19.90;73.40;;;;;;4895273;29;20028;-76
2023/08/31 10:13:05;;;;;;;3.10;1.15;;;20.00;73.80;;;;;;4917529;29;20028;-75
2023/08/31 10:15:36;;;;;;;5.13;1.38;;;20.00;71.60;;;;;;4919869;29;20399;-77
2023/08/31 10:18:04;;;;;;;4.65;1.30;;;20.20;72.30;;;;;;4890343;29;20016;-76
2023/08/31 10:20:34;;;;;;;6.37;1.53;;;20.50;72.70;;;;;;4918046;29;20048;-75
2023/08/31 10:23:05;;;;;;;7.45;1.50;;;20.80;71.90;;;;;;4915864;29;20076;-76
2023/08/31 10:25:45;;;;;;;3.83;1.15;;;21.40;70.80;;;;;;4912935;29;20230;-75
2023/08/31 10:28:18;;;;;;;5.00;1.45;;;21.50;68.80;;;;;;4926078;29;20344;-77
2023/08/31 10:31:04;;;;;;;7.05;1.35;;;21.40;68.10;;;;;;4927605;29;20097;-75
2023/08/31 10:33:46;;;;;;;4.22;1.73;;;21.30;69.30;;;;;;4926780;29;20042;-75
2023/08/31 10:36:34;;;;;;;4.63;1.45;;;21.00;69.70;;;;;;4923819;29;20235;-76
2023/08/31 10:39:21;;;;;;;4.15;1.50;;;20.60;71.50;;;;;;4924412;29;20051;-75
2023/08/31 10:41:55;;;;;;;5.78;2.10;;;20.60;71.80;;;;;;4920531;29;20044;-76
2023/08/31 10:44:30;;;;;;;3.65;1.30;;;20.50;72.30;;;;;;4908210;29;20040;-76
2023/08/31 10:47:00;;;;;;;4.53;1.67;;;20.80;72.80;;;;;;4891683;29;20056;-76
2023/08/31 10:49:26;;;;;;;4.40;1.70;;;21.30;71.80;;;;;;4908220;29;20322;-74
2023/08/31 10:52:18;;;;;;;5.18;2.10;;;21.40;70.80;;;;;;4908018;29;20100;-75
2023/08/31 10:54:45;;;;;;;3.97;1.45;;;21.60;69.60;;;;;;4908476;29;20055;-74
2023/08/31 10:57:13;;;;;;;3.80;1.83;;;21.20;70.40;;;;;;4907731;29;20275;-74
2023/08/31 10:59:52;;;;;;;5.63;1.33;;;21.30;68.60;;;;;;4891147;29;20187;-74
2023/08/31 11:02:38;;;;;;;5.85;1.90;;;21.20;67.90;;;;;;4907333;29;20206;-75
2023/08/31 11:05:11;;;;;;;4.15;1.20;;;21.40;69.10;;;;;;4907197;29;20040;-75
2023/08/31 11:07:47;;;;;;;4.63;1.75;;;21.10;69.20;;;;;;4911102;29;20056;-76
2023/08/31 11:10:27;;;;;;;5.72;1.52;;;21.00;69.00;;;;;;4926526;29;20028;-76
2023/08/31 11:12:54;;;;;;;4.55;1.55;;;20.70;68.90;;;;;;4928122;29;20366;-78
2023/08/31 11:15:22;;;;;;;4.63;1.52;;;20.50;71.00;;;;;;4913894;29;20035;-77
2023/08/31 11:17:53;;;;;;;5.70;2.03;;;20.40;72.00;;;;;;4936911;29;20044;-76
2023/08/31 11:20:21;;;;;;;6.45;1.50;;;20.80;71.90;;;;;;4912906;29;20032;-79
2023/08/31 11:22:53;;;;;;;3.93;1.80;;;20.80;71.80;;;;;;4927187;29;20139;-78
2023/08/31 11:25:19;;;;;;;5.00;1.40;;;20.70;71.90;;;;;;4908687;29;20429;-80
2023/08/31 11:28:04;;;;;;;8.60;1.48;;;20.80;72.20;;;;;;4926909;29;20043;-78
2023/08/31 11:30:31;;;;;;;4.85;1.70;;;20.80;72.50;;;;;;4926853;29;20028;-77
2023/08/31 11:33:37;;;;;;;10.25;1.45;;;21.30;73.00;;;;;;4925352;29;20036;-81
2023/08/31 11:36:13;;;;;;;4.32;1.45;;;22.90;70.50;;;;;;4907611;29;20032;-80
2023/08/31 11:38:40;;;;;;;5.00;1.27;;;24.00;65.90;;;;;;4875401;29;20035;-78
2023/08/31 11:41:57;;;;;;;4.72;1.38;;;24.20;65.00;;;;;;4901347;29;20236;-77
2023/08/31 11:44:41;;;;;;;5.90;1.38;;;23.80;65.90;;;;;;4867474;29;20115;-76
2023/08/31 11:47:28;;;;;;;5.47;1.50;;;23.60;66.60;;;;;;4867960;29;20037;-76
2023/08/31 11:50:04;;;;;;;5.40;1.73;;;23.10;66.00;;;;;;4867884;29;20330;-75
2023/08/31 11:52:36;;;;;;;3.58;1.40;;;22.70;68.20;;;;;;4901660;29;20088;-76
2023/08/31 11:55:17;;;;;;;5.55;1.40;;;22.40;68.70;;;;;;4925446;29;20036;-77
2023/08/31 11:58:10;;;;;;;4.20;1.40;;;22.20;68.60;;;;;;4909543;29;20042;-76
2023/08/31 12:00:39;;;;;;;3.65;1.33;;;22.20;69.10;;;;;;4909774;29;20042;-79
2023/08/31 12:03:41;;;;;;;5.78;1.40;;;22.40;69.40;;;;;;4926131;29;20096;-76
2023/08/31 12:07:48;;;;;;;4.32;1.80;;;23.00;69.00;;;;;;4924420;29;20075;-76
2023/08/31 12:10:17;;;;;;;6.13;1.30;;;23.00;69.60;;;;;;4906913;29;20072;-77
2023/08/31 12:12:53;;;;;;;5.00;1.90;;;22.70;67.20;;;;;;4906842;29;20104;-78
2023/08/31 12:16:11;;;;;;;3.70;1.42;;;22.60;67.80;;;;;;4926013;29;20097;-77
2023/08/31 12:19:20;;;;;;;6.63;1.35;;;22.50;68.50;;;;;;4926143;29;20118;-76
2023/08/31 12:22:04;;;;;;;5.60;1.60;;;22.30;68.90;;;;;;4926031;29;20032;-77
2023/08/31 12:28:56;;;;;;;5.20;1.70;;;22.40;69.10;;;;;;4886565;29;20064;-77
2023/08/31 12:35:19;;;;;;;3.35;1.10;;;22.80;66.80;;;;;;4879395;29;20041;-77
2023/08/31 12:38:16;;;;;;;4.75;1.75;;;22.40;68.80;;;;;;4898868;29;20100;-76
2023/08/31 12:40:42;;;;;;;5.72;1.30;;;22.50;68.00;;;;;;4916882;29;20095;-78
2023/08/31 12:43:10;;;;;;;4.38;1.25;;;24.50;67.10;;;;;;4919299;29;20048;-77
2023/08/31 12:45:36;;;;;;;;;;;25.60;62.30;;;;;;4906621;29;20059;-77
2023/08/31 12:48:14;;;;;;;5.05;1.50;;;25.20;61.90;;;;;;4931325;29;19926;-78
2023/08/31 12:50:53;;;;;;;5.85;1.52;;;24.50;62.50;;;;;;4906742;29;20029;-79
2023/08/31 12:54:22;;;;;;;4.05;1.58;;;24.20;63.90;;;;;;4893294;29;20048;-77
2023/08/31 12:56:48;;;;;;;3.40;1.30;;;23.70;64.40;;;;;;4909150;29;20043;-78
2023/08/31 12:59:32;;;;;;;5.55;1.85;;;23.30;65.10;;;;;;4909926;29;20028;-77
2023/08/31 13:02:13;;;;;;;4.40;1.35;;;23.20;65.50;;;;;;4910205;29;20268;-79
2023/08/31 13:05:38;;;;;;;3.97;1.20;;;23.00;66.70;;;;;;4909311;29;20227;-79
2023/08/31 13:08:05;;;;;;;7.63;1.80;;;22.70;66.30;;;;;;4883035;29;20292;-77
2023/08/31 13:10:34;;;;;;;3.58;1.30;;;22.50;68.50;;;;;;4928770;29;20091;-79
2023/08/31 13:13:00;;;;;;;7.18;1.60;;;22.40;68.20;;;;;;4896536;29;20028;-75
2023/08/31 13:15:26;;;;;;;4.93;1.42;;;22.40;68.70;;;;;;4928185;29;20382;-77
2023/08/31 13:17:52;;;;;;;5.05;1.23;;;22.40;68.50;;;;;;4911966;29;20024;-75
2023/08/31 13:20:27;;;;;;;4.22;1.38;;;22.50;68.60;;;;;;4928378;29;20370;-76
2023/08/31 13:22:53;;;;;;;4.72;1.30;;;22.50;68.60;;;;;;4928847;29;20028;-77
2023/08/31 13:25:27;;;;;;;5.32;1.40;;;22.60;67.90;;;;;;4928213;29;20032;-77
2023/08/31 13:27:56;;;;;;;4.45;1.20;;;22.50;67.90;;;;;;4896201;29;20358;-77
2023/08/31 13:30:31;;;;;;;5.85;1.35;;;23.00;67.30;;;;;;4899292;29;20066;-77
2023/08/31 13:32:57;;;;;;;3.20;1.23;;;24.90;65.20;;;;;;4928612;29;20318;-75
2023/08/31 13:35:23;;;;;;;3.35;1.08;;;27.50;60.00;;;;;;4928274;29;20024;-75
2023/08/31 13:37:52;;;;;;;3.45;1.10;;;29.20;59.00;;;;;;4928979;29;20036;-75
2023/08/31 13:40:21;;;;;;;4.00;1.33;;;30.20;56.10;;;;;;4892544;29;20024;-77
2023/08/31 13:42:59;;;;;;;4.93;1.60;;;30.60;56.80;;;;;;4909639;29;20089;-75
2023/08/31 13:45:34;;;;;;;3.67;1.35;;;32.00;53.60;;;;;;4909399;29;20063;-78
2023/08/31 13:48:05;;;;;;;3.40;1.35;;;32.20;53.10;;;;;;4894394;29;20039;-75
2023/08/31 13:50:31;;;;;;;4.43;1.20;;;31.40;52.30;;;;;;4922598;29;20036;-77
2023/08/31 13:52:57;;;;;;;4.82;1.42;;;29.50;54.50;;;;;;4912328;29;20222;-74
2023/08/31 13:55:23;;;;;;;4.70;1.33;;;28.00;57.30;;;;;;4928670;29;20043;-77
2023/08/31 13:57:49;;;;;;;4.13;1.35;;;27.00;58.60;;;;;;4911892;29;20032;-78
2023/08/31 14:00:27;;;;;;;3.20;1.10;;;26.30;60.00;;;;;;4927981;29;20055;-76
2023/08/31 14:02:52;;;;;;;3.50;1.23;;;25.20;62.00;;;;;;4911224;29;20039;-75
2023/08/31 14:05:18;;;;;;;5.13;1.50;;;24.30;61.60;;;;;;4909507;29;20095;-75
2023/08/31 14:07:44;;;;;;;5.40;1.45;;;23.50;63.50;;;;;;4923489;29;20036;-77
2023/08/31 14:10:12;;;;;;;4.00;1.48;;;23.10;65.20;;;;;;4876515;29;20032;-77
2023/08/31 14:12:41;;;;;;;4.72;1.20;;;22.70;66.20;;;;;;4909208;29;20351;-75
2023/08/31 14:15:19;;;;;;;5.70;1.65;;;22.30;67.30;;;;;;4872914;29;20103;-76
2023/08/31 14:17:50;;;;;;;5.15;1.70;;;22.00;68.90;;;;;;4873617;29;20043;-76
2023/08/31 14:20:16;;;;;;;4.43;1.40;;;21.90;68.20;;;;;;4889802;29;20044;-76
2023/08/31 14:22:44;;;;;;;3.85;1.50;;;21.70;69.10;;;;;;4889961;29;20091;-75
2023/08/31 14:25:14;;;;;;;5.45;1.58;;;21.60;69.40;;;;;;4885272;29;20051;-75
2023/08/31 14:31:08;;;;;;;3.38;1.52;;;21.30;71.40;;;;;;4873217;29;20040;-75
2023/08/31 14:34:08;;;;;;;4.18;1.42;;;21.20;71.00;;;;;;4858480;29;20033;-75
2023/08/31 14:36:34;;;;;;;6.25;1.30;;;21.10;71.30;;;;;;4898715;29;20036;-75
2023/08/31 14:39:02;;;;;;;5.85;1.20;;;21.10;71.80;;;;;;4927641;29;20024;-75
2023/08/31 14:41:33;;;;;;;5.15;1.75;;;21.10;72.20;;;;;;4914771;29;20081;-74
2023/08/31 14:44:08;;;;;;;4.45;1.63;;;21.10;72.00;;;;;;4909700;29;20043;-77
2023/08/31 14:46:39;;;;;;;5.40;1.83;;;21.00;72.40;;;;;;4909417;29;20067;-77
2023/08/31 14:49:25;;;;;;;5.10;1.27;;;21.00;72.70;;;;;;4891943;29;20263;-74
2023/08/31 14:55:53;;;;;;;5.60;1.50;;;21.00;73.50;;;;;;4851868;29;20033;-74
2023/08/31 14:58:54;;;;;;;3.42;1.33;;;21.00;74.60;;;;;;4835281;29;20060;-75
2023/08/31 15:01:37;;;;;;;4.45;1.50;;;20.80;72.50;;;;;;4843713;29;20407;-75
2023/08/31 15:04:26;;;;;;;4.50;1.30;;;21.00;73.30;;;;;;4850502;29;20060;-75
2023/08/31 15:06:56;;;;;;;3.63;1.58;;;21.10;73.20;;;;;;4863087;29;20087;-74
2023/08/31 15:09:27;;;;;;;4.22;1.27;;;21.30;74.40;;;;;;4872671;29;20043;-73
2023/08/31 15:11:53;;;;;;;4.22;1.40;;;21.40;73.00;;;;;;4857211;29;20037;-73
2023/08/31 15:14:19;;;;;;;6.38;1.40;;;21.40;72.60;;;;;;4870225;29;20053;-74
2023/08/31 15:16:45;;;;;;;5.32;1.65;;;21.30;72.80;;;;;;4868965;29;20343;-74
2023/08/31 15:19:10;;;;;;;5.93;1.70;;;21.20;74.10;;;;;;4852748;29;20049;-74
2023/08/31 15:21:38;;;;;;;4.60;1.40;;;21.10;74.40;;;;;;4868755;29;20029;-74
2023/08/31 15:24:04;;;;;;;;;;;21.00;74.40;;;;;;4854214;29;20395;-74
2023/08/31 15:26:52;;;;;;;4.75;1.50;;;21.00;75.50;;;;;;4868569;29;19908;-74
2023/08/31 15:33:21;;;;;;;4.20;1.48;;;21.30;74.40;;;;;;4868280;29;20056;-75
2023/08/31 15:35:47;;;;;;;6.80;1.70;;;22.00;73.70;;;;;;4864371;29;20033;-75
2023/08/31 15:38:18;;;;;;;4.20;1.55;;;22.60;72.60;;;;;;4868731;29;20033;-75
2023/08/31 15:40:50;;;;;;;5.25;1.40;;;22.90;70.40;;;;;;4869005;29;20037;-74
2023/08/31 15:43:33;;;;;;;5.60;1.63;;;22.70;70.20;;;;;;4868214;29;20061;-74
2023/08/31 15:46:08;;;;;;;5.90;1.52;;;22.30;71.00;;;;;;4868888;29;20163;-74
2023/08/31 15:48:34;;;;;;;4.82;1.65;;;21.90;73.20;;;;;;4868526;29;20270;-75
2023/08/31 15:51:00;;;;;;;6.60;1.65;;;21.60;73.10;;;;;;4868872;29;20040;-74
2023/08/31 15:53:30;;;;;;;4.03;1.17;;;21.30;74.60;;;;;;4852624;29;20338;-74
2023/08/31 15:56:03;;;;;;;6.00;1.50;;;21.00;75.10;;;;;;4853049;29;20041;-74
2023/08/31 15:58:44;;;;;;;5.00;1.83;;;20.80;76.20;;;;;;4853211;29;20049;-74
2023/08/31 16:01:34;;;;;;;3.83;1.25;;;20.60;77.40;;;;;;4868514;29;20263;-74
2023/08/31 16:07:12;;;;;;;7.32;1.70;;;20.40;78.30;;;;;;4857899;29;20129;-75
2023/08/31 16:09:57;;;;;;;3.58;1.77;;;20.30;78.60;;;;;;4907634;29;20349;-75
2023/08/31 16:12:29;;;;;;;5.63;1.63;;;20.30;78.80;;;;;;4926457;29;20026;-75
2023/08/31 16:15:01;;;;;;;5.82;1.73;;;20.10;79.10;;;;;;4926073;29;20032;-74
2023/08/31 16:17:27;;;;;;;4.72;1.60;;;20.20;80.10;;;;;;4908996;29;20020;-74
2023/08/31 16:19:53;;;;;;;5.70;1.70;;;20.20;80.50;;;;;;4926573;29;20032;-75
2023/08/31 16:22:22;;;;;;;5.38;1.90;;;20.30;80.10;;;;;;4892174;29;20415;-75
2023/08/31 16:24:50;;;;;;;5.20;1.38;;;20.50;80.70;;;;;;4926565;29;20246;-74
2023/08/31 16:27:18;;;;;;;;;;;20.70;80.40;;;;;;4928715;29;20028;-74
2023/08/31 16:29:48;;;;;;;4.47;1.45;;;20.80;78.90;;;;;;4891139;29;19978;-74
2023/08/31 16:32:13;;;;;;;4.95;1.58;;;21.00;78.40;;;;;;4926925;29;20059;-74
2023/08/31 16:35:20;;;;;;;7.05;1.83;;;20.80;78.70;;;;;;4929704;29;20401;-75
2023/08/31 16:37:58;;;;;;;4.28;1.52;;;20.70;79.30;;;;;;4907467;29;20040;-74
2023/08/31 16:40:24;;;;;;;6.30;1.90;;;20.50;79.90;;;;;;4908976;29;20040;-74
2023/08/31 16:42:50;;;;;;;4.07;1.60;;;20.60;80.00;;;;;;4908970;29;20349;-74
2023/08/31 16:45:21;;;;;;;4.65;1.42;;;20.60;80.50;;;;;;4892642;29;20080;-74
2023/08/31 16:48:03;;;;;;;5.03;1.50;;;20.50;80.90;;;;;;4904176;29;20045;-74
2023/08/31 16:50:38;;;;;;;7.10;1.50;;;20.40;81.30;;;;;;4907932;29;20056;-76
2023/08/31 16:53:06;;;;;;;5.55;1.67;;;20.20;81.90;;;;;;4925259;29;20067;-74
2023/08/31 16:55:33;;;;;;;6.93;1.60;;;20.00;82.60;;;;;;4929103;29;20140;-74
2023/08/31 16:58:06;;;;;;;6.38;2.20;;;19.80;83.50;;;;;;4909225;29;20067;-74
2023/08/31 17:00:52;;;;;;;4.70;1.90;;;19.70;84.30;;;;;;4928406;29;20233;-74
2023/08/31 17:03:33;;;;;;;6.68;1.63;;;19.50;85.00;;;;;;4928965;29;20036;-75
2023/08/31 17:06:05;;;;;;;3.72;1.58;;;19.40;85.30;;;;;;4929445;29;20040;-75
2023/08/31 17:08:41;;;;;;;5.13;1.70;;;19.30;86.00;;;;;;4928228;29;20055;-76
2023/08/31 17:11:39;;;;;;;5.82;1.60;;;19.20;86.40;;;;;;4929392;29;20024;-75
2023/08/31 17:14:09;;;;;;;8.50;2.33;;;19.10;86.60;;;;;;4908163;29;20329;-76
2023/08/31 17:17:42;;;;;;;7.13;2.35;;;19.00;87.10;;;;;;4929106;29;20050;-74
2023/08/31 17:20:06;;;;;;;5.35;2.28;;;19.00;87.60;;;;;;4845509;29;20065;-76
2023/08/31 17:23:00;;;;;;;4.97;1.95;;;19.00;88.80;;;;;;4848579;29;20044;-77
2023/08/31 17:25:26;;;;;;;5.22;1.95;;;18.90;88.90;;;;;;4911268;29;20024;-77
2023/08/31 17:27:52;;;;;;;4.68;1.80;;;18.90;90.50;;;;;;4908637;29;20064;-77
2023/08/31 17:30:18;;;;;;;6.93;2.10;;;18.90;89.90;;;;;;4892795;29;20044;-75
2023/08/31 17:32:44;;;;;;;5.50;2.15;;;18.90;89.80;;;;;;4910336;29;20104;-76
2023/08/31 17:35:11;;;;;;;6.07;1.90;;;18.90;90.40;;;;;;4908985;29;20056;-75
2023/08/31 17:37:37;;;;;;;8.93;2.17;;;18.80;90.30;;;;;;4892976;29;20206;-75
2023/08/31 17:40:24;;;;;;;6.22;2.50;;;18.80;90.50;;;;;;4895438;29;20025;-74
2023/08/31 17:42:59;;;;;;;6.28;2.47;;;18.80;90.40;;;;;;4927813;29;20068;-75
2023/08/31 17:45:36;;;;;;;6.13;2.15;;;18.70;90.70;;;;;;4928362;29;20039;-76
2023/08/31 17:48:20;;;;;;;7.15;2.00;;;18.70;91.30;;;;;;4911981;29;20040;-75
2023/08/31 17:50:45;;;;;;;6.30;1.95;;;18.70;91.40;;;;;;4928626;29;20083;-76
2023/08/31 17:53:14;;;;;;;7.90;2.22;;;18.70;91.30;;;;;;4911827;29;20024;-75
2023/08/31 17:55:56;;;;;;;7.72;2.65;;;18.70;90.80;;;;;;4928452;29;20035;-76
2023/08/31 17:58:25;;;;;;;7.10;2.97;;;18.60;90.50;;;;;;4928237;29;20055;-76
2023/08/31 18:00:59;;;;;;;7.07;2.65;;;18.60;90.60;;;;;;4928837;29;20043;-75
2023/08/31 18:03:26;;;;;;;5.82;2.60;;;18.50;90.90;;;;;;4913036;29;20084;-75
2023/08/31 18:06:06;;;;;;;7.72;3.00;;;18.50;90.90;;;;;;4909247;29;20032;-76
2023/08/31 18:08:55;;;;;;;6.80;2.95;;;18.50;91.20;;;;;;4908928;29;20103;-75
2023/08/31 18:11:26;;;;;;;11.65;4.15;;;18.40;91.10;;;;;;4908577;29;20349;-76
2023/08/31 18:13:54;;;;;;;8.23;4.32;;;18.40;91.40;;;;;;4918239;29;20079;-76
2023/08/31 18:16:20;;;;;;;;;;;18.40;91.50;;;;;;4928232;29;20032;-76
2023/08/31 18:18:58;;;;;;;6.88;2.75;;;18.30;91.30;;;;;;4927781;29;20022;-76
2023/08/31 18:21:27;;;;;;;5.75;2.97;;;18.30;91.40;;;;;;4909685;29;20036;-76
2023/08/31 18:24:02;;;;;;;8.27;3.40;;;18.20;91.50;;;;;;4922338;29;20036;-76
2023/08/31 18:26:40;;;;;;;5.85;2.53;;;18.20;91.50;;;;;;4915617;29;20076;-76
2023/08/31 18:29:10;;;;;;;10.38;3.00;;;18.20;91.90;;;;;;4892466;29;20052;-75
2023/08/31 18:31:50;;;;;;;7.18;3.08;;;18.20;91.90;;;;;;4891673;29;20024;-74
2023/08/31 18:34:16;;;;;;;7.95;3.35;;;18.20;92.00;;;;;;4891610;29;20032;-76
2023/08/31 18:36:51;;;;;;;5.57;2.67;;;18.20;92.00;;;;;;4891019;29;20058;-76
2023/08/31 18:39:26;;;;;;;6.25;2.90;;;18.10;92.20;;;;;;4910567;29;20028;-76
2023/08/31 18:42:02;;;;;;;5.95;2.90;;;18.10;92.50;;;;;;4910680;29;20039;-75
2023/08/31 18:44:30;;;;;;;8.00;3.35;;;18.10;92.40;;;;;;4927197;29;20079;-76
2023/08/31 18:47:13;;;;;;;7.40;2.85;;;18.10;92.70;;;;;;4911524;29;20039;-76
2023/08/31 18:50:04;;;;;;;7.15;3.30;;;18.10;92.90;;;;;;4926926;29;20043;-76
2023/08/31 18:52:38;;;;;;;6.22;3.30;;;18.10;93.00;;;;;;4909955;29;20032;-76
2023/08/31 18:55:15;;;;;;;8.00;3.55;;;18.00;92.70;;;;;;4910055;29;20032;-75
2023/08/31 18:57:44;;;;;;;6.93;2.90;;;18.00;93.50;;;;;;4925615;29;20082;-76
2023/08/31 19:00:12;;;;;;;7.43;2.83;;;18.00;93.00;;;;;;4927071;29;20036;-77
2023/08/31 19:02:39;;;;;;;8.05;3.65;;;18.00;93.50;;;;;;4926752;29;20020;-78
2023/08/31 19:05:23;;;;;;;7.68;3.80;;;18.00;93.80;;;;;;4927080;29;20060;-76
2023/08/31 19:08:14;;;;;;;10.45;3.83;;;18.00;93.80;;;;;;4906860;29;20108;-76
2023/08/31 19:10:40;;;;;;;8.90;4.38;;;17.90;94.30;;;;;;4919887;29;20385;-75
2023/08/31 19:13:07;;;;;;;9.02;4.13;;;17.90;94.50;;;;;;4929180;29;20031;-76
2023/08/31 19:15:50;;;;;;;8.70;3.55;;;17.90;94.90;;;;;;4930227;29;20047;-75
2023/08/31 19:18:19;;;;;;;10.77;3.60;;;17.90;94.70;;;;;;4937017;29;20071;-76
2023/08/31 19:20:50;;;;;;;7.70;3.53;;;17.80;94.70;;;;;;4927171;29;20024;-77
2023/08/31 19:26:42;;;;;;;8.85;3.55;;;17.80;94.80;;;;;;4928078;29;20035;-75